Morris, Minnesota
Current Conditions -  °F | °C
As of 1:24 PM on Friday 31 Oct 2014 (Local Time) from KMOX Reporting Station
Clear Clear  
Wind Chill: 31°   Ceiling: Unl
Heat Index: 36°   Visibility: 10mi
Dew Point: 21°   Wind: 6mph
Humidity: 56%   Direction: 150°SSE
Pressure: 30.53"   Gusts: NA
Location:  45.59°N, 95.91°W
Report Text: KMOX 311824Z AUTO 15005KT 10SM CLR 02/M06 A3053 RMK AO2
Loading
Personal Weather Stations






























Interactive Weather Map
Tropical Storm Tracking
New forecast layout! Learn more

10-Day Weather Forecast

Advertisements
Track Severe Weather on mobile